Robbinsville, NC (28771)

8:41 AM EST on February 12, 2016 (GMT -0500)
East Buffalo | | Change Station
CLOSE
Current Station
Personal Weather Station
Location: Robbinsville, NC
Elevation: 2618 ft
Nearby Weather Stations
Active Advisory: Wind Chill Advisory

Elev 2618 ft 35.37 °N, 83.81 °W | Updated 16 seconds ago

Overcast
Overcast
29.8 °F
Feels Like 30 °F
N
0.0
Wind Variable Wind from East
Gusts 0.0 mph

Today
High -- | Low -- °F
--% Chance of Precip.
Yesterday
High -- | Low -- °F
Precip. -- in
Pressure 30.14 in
Visibility 10.0 miles
Clouds Scattered Clouds 2000 ft
Mostly Cloudy 2600 ft
Overcast 5000 ft
Windchill 30 °F
Dew Point 22 °F
Humidity 73%
Rainfall 0.00 in
Snow Depth Not available.
7:25 AM 6:14 PM
Waxing Crescent, 20% visible
METAR KRHP 121315Z AUTO 24004KT 10SM SCT020 BKN026 OVC050 M01/M03 A3014 RMK AO2 T10071027
Pressure 30.14 in
Visibility 10.0 miles
Clouds Scattered Clouds 2000 ft
Mostly Cloudy 2600 ft
Overcast 5000 ft
Windchill 30 °F
Dew Point 22 °F
Humidity 73%
Rainfall 0.00 in
Snow Depth Not available.
7:25 AM 6:14 PM
Waxing Crescent, 20% visible
METAR KRHP 121315Z AUTO 24004KT 10SM SCT020 BKN026 OVC050 M01/M03 A3014 RMK AO2 T10071027

10-Day Weather Forecast

Almanac

Astronomy

Feb. 12, 2016 Rise Set
Actual Time
Civil Twilight
Nautical Twilight
Astronomical Twilight
Moon
Length of Visible Light
Length of Day
Tomorrow will be .
, % of the Moon is Illuminated

Today's Extremes

State Highs State Lows

Community

WunderPhotos

Upload Photos

1,892,313 photos uploaded!

WunderBlog® & News

Nearby

Air Quality

  Air Quality AQ Index Pollutant
Not available.

Snow Depth

Station Depth Elevation

Earthquake Activity

City Distance Mag. Time & Date
Minimum magnitude displayed is 2.5.

Coastal Water Temperatures

Place Temperature

Stations

Nearby Weather Stations

Station Location Temp. Windchill Dew Point Humidity Wind Precip. Elev Updated Type
                   

Watches & Warnings

Wind Chill Advisory
Issued: 4:01 AM EST Feb. 12, 2016 – National Weather Service

... Wind Chill Advisory in effect from midnight tonight to noon
EST Saturday above 3500 feet...

The National Weather Service in Greenville-Spartanburg has issued
a Wind Chill Advisory above 3500 feet... which is in effect from
midnight tonight to noon EST Saturday.

* Locations... portions of the central North Carolina mountains.

* Winds... northwest 15 to 25 mph with gusts up to 55 mph.

* Wind chill values... as low as 5 to 15 below zero.

* Impacts... dangerous wind chills may make travel hazardous.

Precautionary/preparedness actions...

A Wind Chill Advisory means that very cold air and strong winds
will combine to generate low wind chills. This will result in
frost bite and lead to hypothermia if precautions are not taken.
If you must venture outdoors... make sure you wear a hat and
gloves.

Stay tuned to NOAA Weather Radio or your favorite source of
weather information for the latest updates. Additional details
can be found at www.Weather.Gov/gsp.



Ark